sensor_id;sensor_type;location;lat;lon;timestamp;P1;durP1;ratioP1;P2;durP2;ratioP2
20022;SDS011;10172;42.054;24.546;2023-11-21T00:02:15;1.40;;;1.20;;
20022;SDS011;10172;42.054;24.546;2023-11-21T00:04:41;2.38;;;0.80;;
20022;SDS011;10172;42.054;24.546;2023-11-21T00:07:06;1.25;;;0.60;;
20022;SDS011;10172;42.054;24.546;2023-11-21T00:09:32;1.00;;;0.60;;
20022;SDS011;10172;42.054;24.546;2023-11-21T00:11:58;1.92;;;1.48;;
20022;SDS011;10172;42.054;24.546;2023-11-21T00:14:24;1.38;;;1.13;;
20022;SDS011;10172;42.054;24.546;2023-11-21T00:16:50;1.95;;;1.33;;
20022;SDS011;10172;42.054;24.546;2023-11-21T00:19:15;1.80;;;1.10;;
20022;SDS011;10172;42.054;24.546;2023-11-21T00:21:41;0.88;;;0.82;;
20022;SDS011;10172;42.054;24.546;2023-11-21T00:24:09;4.65;;;2.90;;
20022;SDS011;10172;42.054;24.546;2023-11-21T00:26:35;1.25;;;0.80;;
20022;SDS011;10172;42.054;24.546;2023-11-21T00:29:02;6.25;;;3.67;;
20022;SDS011;10172;42.054;24.546;2023-11-21T00:31:28;9.98;;;6.72;;
20022;SDS011;10172;42.054;24.546;2023-11-21T00:33:54;1.20;;;0.80;;
20022;SDS011;10172;42.054;24.546;2023-11-21T00:36:20;1.10;;;0.60;;
20022;SDS011;10172;42.054;24.546;2023-11-21T00:38:46;3.30;;;1.33;;
20022;SDS011;10172;42.054;24.546;2023-11-21T00:41:13;0.88;;;0.68;;
20022;SDS011;10172;42.054;24.546;2023-11-21T00:43:38;2.58;;;0.90;;
20022;SDS011;10172;42.054;24.546;2023-11-21T00:46:04;1.05;;;0.73;;
20022;SDS011;10172;42.054;24.546;2023-11-21T00:48:32;1.63;;;0.80;;
20022;SDS011;10172;42.054;24.546;2023-11-21T00:50:58;1.13;;;0.55;;
20022;SDS011;10172;42.054;24.546;2023-11-21T00:53:23;0.70;;;0.60;;
20022;SDS011;10172;42.054;24.546;2023-11-21T00:55:49;0.75;;;0.45;;
20022;SDS011;10172;42.054;24.546;2023-11-21T00:58:14;0.75;;;0.55;;
20022;SDS011;10172;42.054;24.546;2023-11-21T01:00:40;0.77;;;0.47;;
20022;SDS011;10172;42.054;24.546;2023-11-21T01:03:05;0.40;;;0.30;;
20022;SDS011;10172;42.054;24.546;2023-11-21T01:05:33;0.80;;;0.40;;
20022;SDS011;10172;42.054;24.546;2023-11-21T01:07:59;1.58;;;0.60;;
20022;SDS011;10172;42.054;24.546;2023-11-21T01:10:25;1.15;;;0.50;;
20022;SDS011;10172;42.054;24.546;2023-11-21T01:12:50;0.70;;;0.52;;
20022;SDS011;10172;42.054;24.546;2023-11-21T01:15:16;1.38;;;0.52;;
20022;SDS011;10172;42.054;24.546;2023-11-21T01:17:41;0.40;;;0.40;;
20022;SDS011;10172;42.054;24.546;2023-11-21T01:20:07;0.65;;;0.30;;
20022;SDS011;10172;42.054;24.546;2023-11-21T01:22:37;0.40;;;0.35;;
20022;SDS011;10172;42.054;24.546;2023-11-21T01:25:03;0.80;;;0.40;;
20022;SDS011;10172;42.054;24.546;2023-11-21T01:27:32;1.45;;;0.38;;
20022;SDS011;10172;42.054;24.546;2023-11-21T01:29:57;2.58;;;0.60;;
20022;SDS011;10172;42.054;24.546;2023-11-21T01:32:23;0.30;;;0.30;;
20022;SDS011;10172;42.054;24.546;2023-11-21T01:34:50;0.40;;;0.40;;
20022;SDS011;10172;42.054;24.546;2023-11-21T01:37:15;0.88;;;0.60;;
20022;SDS011;10172;42.054;24.546;2023-11-21T01:39:42;0.77;;;0.70;;
20022;SDS011;10172;42.054;24.546;2023-11-21T01:42:09;1.40;;;1.30;;
20022;SDS011;10172;42.054;24.546;2023-11-21T01:44:35;5.10;;;2.80;;
20022;SDS011;10172;42.054;24.546;2023-11-21T01:47:01;5.50;;;3.80;;
20022;SDS011;10172;42.054;24.546;2023-11-21T01:49:31;6.68;;;4.75;;
20022;SDS011;10172;42.054;24.546;2023-11-21T01:51:58;4.35;;;2.50;;
20022;SDS011;10172;42.054;24.546;2023-11-21T01:54:24;1.63;;;0.70;;
20022;SDS011;10172;42.054;24.546;2023-11-21T01:56:50;1.67;;;0.90;;
20022;SDS011;10172;42.054;24.546;2023-11-21T01:59:18;1.13;;;0.80;;
20022;SDS011;10172;42.054;24.546;2023-11-21T02:01:46;0.80;;;0.65;;
20022;SDS011;10172;42.054;24.546;2023-11-21T02:04:12;2.42;;;0.82;;
20022;SDS011;10172;42.054;24.546;2023-11-21T02:06:38;1.88;;;0.80;;
20022;SDS011;10172;42.054;24.546;2023-11-21T02:09:04;1.13;;;0.60;;
20022;SDS011;10172;42.054;24.546;2023-11-21T02:11:30;1.10;;;0.70;;
20022;SDS011;10172;42.054;24.546;2023-11-21T02:13:56;1.00;;;0.60;;
20022;SDS011;10172;42.054;24.546;2023-11-21T02:16:24;1.50;;;1.00;;
20022;SDS011;10172;42.054;24.546;2023-11-21T02:18:49;4.40;;;1.73;;
20022;SDS011;10172;42.054;24.546;2023-11-21T02:21:17;1.75;;;1.60;;
20022;SDS011;10172;42.054;24.546;2023-11-21T02:23:44;1.00;;;0.90;;
20022;SDS011;10172;42.054;24.546;2023-11-21T02:26:11;1.10;;;1.00;;
20022;SDS011;10172;42.054;24.546;2023-11-21T02:28:37;1.65;;;1.50;;
20022;SDS011;10172;42.054;24.546;2023-11-21T02:31:04;1.80;;;1.30;;
20022;SDS011;10172;42.054;24.546;2023-11-21T02:33:30;2.25;;;1.02;;
20022;SDS011;10172;42.054;24.546;2023-11-21T02:35:58;2.25;;;0.90;;
20022;SDS011;10172;42.054;24.546;2023-11-21T02:38:27;9.82;;;3.28;;
20022;SDS011;10172;42.054;24.546;2023-11-21T02:40:52;13.07;;;4.93;;
20022;SDS011;10172;42.054;24.546;2023-11-21T02:43:18;16.23;;;5.38;;
20022;SDS011;10172;42.054;24.546;2023-11-21T02:45:43;3.83;;;2.22;;
20022;SDS011;10172;42.054;24.546;2023-11-21T02:48:09;1.80;;;1.02;;
20022;SDS011;10172;42.054;24.546;2023-11-21T02:50:34;1.88;;;0.50;;
20022;SDS011;10172;42.054;24.546;2023-11-21T02:53:03;0.82;;;0.65;;
20022;SDS011;10172;42.054;24.546;2023-11-21T02:55:31;0.63;;;0.55;;
20022;SDS011;10172;42.054;24.546;2023-11-21T02:58:00;4.50;;;2.60;;
20022;SDS011;10172;42.054;24.546;2023-11-21T03:00:25;7.40;;;3.70;;
20022;SDS011;10172;42.054;24.546;2023-11-21T03:02:51;4.50;;;2.20;;
20022;SDS011;10172;42.054;24.546;2023-11-21T03:05:16;8.30;;;2.75;;
20022;SDS011;10172;42.054;24.546;2023-11-21T03:07:42;2.33;;;1.00;;
20022;SDS011;10172;42.054;24.546;2023-11-21T03:10:08;1.10;;;0.57;;
20022;SDS011;10172;42.054;24.546;2023-11-21T03:12:34;0.40;;;0.40;;
20022;SDS011;10172;42.054;24.546;2023-11-21T03:14:59;1.85;;;1.48;;
20022;SDS011;10172;42.054;24.546;2023-11-21T03:17:26;1.58;;;0.70;;
20022;SDS011;10172;42.054;24.546;2023-11-21T03:19:52;2.33;;;0.90;;
20022;SDS011;10172;42.054;24.546;2023-11-21T03:22:18;5.88;;;2.25;;
20022;SDS011;10172;42.054;24.546;2023-11-21T03:24:44;23.95;;;5.47;;
20022;SDS011;10172;42.054;24.546;2023-11-21T03:27:09;13.20;;;6.68;;
20022;SDS011;10172;42.054;24.546;2023-11-21T03:29:35;4.47;;;2.78;;
20022;SDS011;10172;42.054;24.546;2023-11-21T03:32:00;3.08;;;1.90;;
20022;SDS011;10172;42.054;24.546;2023-11-21T03:34:26;2.92;;;1.50;;
20022;SDS011;10172;42.054;24.546;2023-11-21T03:36:52;3.28;;;1.80;;
20022;SDS011;10172;42.054;24.546;2023-11-21T03:39:21;6.00;;;2.30;;
20022;SDS011;10172;42.054;24.546;2023-11-21T03:41:47;4.53;;;1.88;;
20022;SDS011;10172;42.054;24.546;2023-11-21T03:44:13;2.17;;;1.00;;
20022;SDS011;10172;42.054;24.546;2023-11-21T03:46:39;2.38;;;1.35;;
20022;SDS011;10172;42.054;24.546;2023-11-21T03:49:04;2.05;;;1.00;;
20022;SDS011;10172;42.054;24.546;2023-11-21T03:51:30;2.33;;;1.42;;
20022;SDS011;10172;42.054;24.546;2023-11-21T03:53:55;2.35;;;1.10;;
20022;SDS011;10172;42.054;24.546;2023-11-21T03:56:21;2.00;;;1.45;;
20022;SDS011;10172;42.054;24.546;2023-11-21T03:58:49;15.82;;;9.23;;
20022;SDS011;10172;42.054;24.546;2023-11-21T04:01:24;3.72;;;2.47;;
20022;SDS011;10172;42.054;24.546;2023-11-21T04:03:50;1.20;;;0.93;;
20022;SDS011;10172;42.054;24.546;2023-11-21T04:06:16;1.70;;;0.90;;
20022;SDS011;10172;42.054;24.546;2023-11-21T04:08:45;3.22;;;0.90;;
20022;SDS011;10172;42.054;24.546;2023-11-21T04:11:11;2.75;;;0.90;;
20022;SDS011;10172;42.054;24.546;2023-11-21T04:13:39;2.47;;;0.85;;
20022;SDS011;10172;42.054;24.546;2023-11-21T04:16:06;1.85;;;0.80;;
20022;SDS011;10172;42.054;24.546;2023-11-21T04:18:33;2.38;;;1.05;;
20022;SDS011;10172;42.054;24.546;2023-11-21T04:20:59;0.50;;;0.50;;
20022;SDS011;10172;42.054;24.546;2023-11-21T04:23:24;1.20;;;0.68;;
20022;SDS011;10172;42.054;24.546;2023-11-21T04:25:50;1.48;;;0.60;;
20022;SDS011;10172;42.054;24.546;2023-11-21T04:28:15;0.80;;;0.60;;
20022;SDS011;10172;42.054;24.546;2023-11-21T04:30:41;1.23;;;0.70;;
20022;SDS011;10172;42.054;24.546;2023-11-21T04:33:06;100.80;;;31.95;;
20022;SDS011;10172;42.054;24.546;2023-11-21T04:35:32;24.42;;;8.40;;
20022;SDS011;10172;42.054;24.546;2023-11-21T04:37:58;6.85;;;1.88;;
20022;SDS011;10172;42.054;24.546;2023-11-21T04:40:23;6.55;;;1.95;;
20022;SDS011;10172;42.054;24.546;2023-11-21T04:42:48;4.15;;;2.40;;
20022;SDS011;10172;42.054;24.546;2023-11-21T04:45:14;7.22;;;3.53;;
20022;SDS011;10172;42.054;24.546;2023-11-21T04:47:39;2.15;;;1.10;;
20022;SDS011;10172;42.054;24.546;2023-11-21T04:50:05;1.83;;;0.90;;
20022;SDS011;10172;42.054;24.546;2023-11-21T04:52:31;4.60;;;1.58;;
20022;SDS011;10172;42.054;24.546;2023-11-21T04:54:58;2.20;;;1.40;;
20022;SDS011;10172;42.054;24.546;2023-11-21T04:57:26;1.20;;;1.10;;
20022;SDS011;10172;42.054;24.546;2023-11-21T04:59:53;1.95;;;0.77;;
20022;SDS011;10172;42.054;24.546;2023-11-21T05:02:18;1.08;;;0.93;;
20022;SDS011;10172;42.054;24.546;2023-11-21T05:04:44;2.03;;;0.70;;
20022;SDS011;10172;42.054;24.546;2023-11-21T05:07:10;2.88;;;1.20;;
20022;SDS011;10172;42.054;24.546;2023-11-21T05:09:35;4.20;;;1.80;;
20022;SDS011;10172;42.054;24.546;2023-11-21T05:12:02;2.17;;;1.40;;
20022;SDS011;10172;42.054;24.546;2023-11-21T05:14:28;2.25;;;1.30;;
20022;SDS011;10172;42.054;24.546;2023-11-21T05:16:54;1.05;;;0.85;;
20022;SDS011;10172;42.054;24.546;2023-11-21T05:19:19;1.85;;;0.60;;
20022;SDS011;10172;42.054;24.546;2023-11-21T05:21:46;0.70;;;0.70;;
20022;SDS011;10172;42.054;24.546;2023-11-21T05:24:11;1.50;;;1.17;;
20022;SDS011;10172;42.054;24.546;2023-11-21T05:26:36;2.60;;;1.10;;
20022;SDS011;10172;42.054;24.546;2023-11-21T05:29:02;4.35;;;1.25;;
20022;SDS011;10172;42.054;24.546;2023-11-21T05:31:27;2.40;;;1.65;;
20022;SDS011;10172;42.054;24.546;2023-11-21T05:33:53;1.60;;;1.50;;
20022;SDS011;10172;42.054;24.546;2023-11-21T05:36:18;1.48;;;1.30;;
20022;SDS011;10172;42.054;24.546;2023-11-21T05:38:43;1.58;;;1.00;;
20022;SDS011;10172;42.054;24.546;2023-11-21T05:41:09;1.90;;;1.13;;
20022;SDS011;10172;42.054;24.546;2023-11-21T05:43:38;1.45;;;0.80;;
20022;SDS011;10172;42.054;24.546;2023-11-21T05:46:04;0.60;;;0.50;;
20022;SDS011;10172;42.054;24.546;2023-11-21T05:48:29;1.80;;;1.00;;
20022;SDS011;10172;42.054;24.546;2023-11-21T05:50:55;5.15;;;3.15;;
20022;SDS011;10172;42.054;24.546;2023-11-21T05:53:20;3.03;;;2.15;;
20022;SDS011;10172;42.054;24.546;2023-11-21T05:55:46;2.45;;;1.50;;
20022;SDS011;10172;42.054;24.546;2023-11-21T05:58:12;3.10;;;1.60;;
20022;SDS011;10172;42.054;24.546;2023-11-21T06:00:38;3.13;;;1.20;;
20022;SDS011;10172;42.054;24.546;2023-11-21T06:03:04;2.03;;;1.10;;
20022;SDS011;10172;42.054;24.546;2023-11-21T06:05:31;2.67;;;1.70;;
20022;SDS011;10172;42.054;24.546;2023-11-21T06:07:58;8.30;;;5.72;;
20022;SDS011;10172;42.054;24.546;2023-11-21T06:10:24;5.38;;;3.92;;
20022;SDS011;10172;42.054;24.546;2023-11-21T06:12:50;2.45;;;1.80;;
20022;SDS011;10172;42.054;24.546;2023-11-21T06:15:16;4.25;;;2.85;;
20022;SDS011;10172;42.054;24.546;2023-11-21T06:17:44;3.25;;;1.02;;
20022;SDS011;10172;42.054;24.546;2023-11-21T06:20:10;12.05;;;10.05;;
20022;SDS011;10172;42.054;24.546;2023-11-21T06:22:39;2.15;;;1.40;;
20022;SDS011;10172;42.054;24.546;2023-11-21T06:25:06;10.07;;;6.22;;
20022;SDS011;10172;42.054;24.546;2023-11-21T06:27:37;11.70;;;9.38;;
20022;SDS011;10172;42.054;24.546;2023-11-21T06:30:04;12.18;;;6.32;;
20022;SDS011;10172;42.054;24.546;2023-11-21T06:32:31;8.13;;;4.85;;
20022;SDS011;10172;42.054;24.546;2023-11-21T06:34:57;5.30;;;3.90;;
20022;SDS011;10172;42.054;24.546;2023-11-21T06:37:28;5.03;;;3.65;;
20022;SDS011;10172;42.054;24.546;2023-11-21T06:39:54;15.45;;;9.18;;
20022;SDS011;10172;42.054;24.546;2023-11-21T06:42:19;13.35;;;6.88;;
20022;SDS011;10172;42.054;24.546;2023-11-21T06:44:45;12.15;;;7.85;;
20022;SDS011;10172;42.054;24.546;2023-11-21T06:47:11;12.48;;;6.78;;
20022;SDS011;10172;42.054;24.546;2023-11-21T06:49:37;11.75;;;5.75;;
20022;SDS011;10172;42.054;24.546;2023-11-21T06:52:03;13.70;;;6.57;;
20022;SDS011;10172;42.054;24.546;2023-11-21T06:54:30;12.90;;;5.80;;
20022;SDS011;10172;42.054;24.546;2023-11-21T06:56:56;12.63;;;6.50;;
20022;SDS011;10172;42.054;24.546;2023-11-21T06:59:23;11.07;;;5.88;;
20022;SDS011;10172;42.054;24.546;2023-11-21T07:01:49;10.95;;;6.10;;
20022;SDS011;10172;42.054;24.546;2023-11-21T07:04:14;12.15;;;6.68;;
20022;SDS011;10172;42.054;24.546;2023-11-21T07:06:40;10.32;;;6.50;;
20022;SDS011;10172;42.054;24.546;2023-11-21T07:09:05;11.88;;;7.18;;
20022;SDS011;10172;42.054;24.546;2023-11-21T07:11:33;17.30;;;8.00;;
20022;SDS011;10172;42.054;24.546;2023-11-21T07:13:59;16.58;;;8.68;;
20022;SDS011;10172;42.054;24.546;2023-11-21T07:16:24;18.55;;;9.65;;
20022;SDS011;10172;42.054;24.546;2023-11-21T07:18:51;18.60;;;11.15;;
20022;SDS011;10172;42.054;24.546;2023-11-21T07:21:17;14.75;;;9.25;;
20022;SDS011;10172;42.054;24.546;2023-11-21T07:23:42;14.90;;;8.48;;
20022;SDS011;10172;42.054;24.546;2023-11-21T07:26:07;13.70;;;8.45;;
20022;SDS011;10172;42.054;24.546;2023-11-21T07:28:35;14.88;;;7.40;;
20022;SDS011;10172;42.054;24.546;2023-11-21T07:31:01;12.07;;;7.70;;
20022;SDS011;10172;42.054;24.546;2023-11-21T07:33:27;14.85;;;8.05;;
20022;SDS011;10172;42.054;24.546;2023-11-21T07:35:52;14.48;;;8.48;;
20022;SDS011;10172;42.054;24.546;2023-11-21T07:38:17;14.40;;;9.00;;
20022;SDS011;10172;42.054;24.546;2023-11-21T07:40:43;12.45;;;7.13;;
20022;SDS011;10172;42.054;24.546;2023-11-21T07:43:08;15.15;;;8.23;;
20022;SDS011;10172;42.054;24.546;2023-11-21T07:45:35;16.42;;;8.77;;
20022;SDS011;10172;42.054;24.546;2023-11-21T07:48:01;13.45;;;8.77;;
20022;SDS011;10172;42.054;24.546;2023-11-21T07:50:28;23.08;;;13.15;;
20022;SDS011;10172;42.054;24.546;2023-11-21T07:52:54;38.10;;;19.38;;
20022;SDS011;10172;42.054;24.546;2023-11-21T07:55:19;31.10;;;17.92;;
20022;SDS011;10172;42.054;24.546;2023-11-21T07:57:45;32.03;;;18.13;;
20022;SDS011;10172;42.054;24.546;2023-11-21T08:00:10;25.95;;;15.98;;
20022;SDS011;10172;42.054;24.546;2023-11-21T08:02:37;22.20;;;15.00;;
20022;SDS011;10172;42.054;24.546;2023-11-21T08:05:04;28.48;;;16.17;;
20022;SDS011;10172;42.054;24.546;2023-11-21T08:07:32;22.98;;;14.57;;
20022;SDS011;10172;42.054;24.546;2023-11-21T08:09:57;22.00;;;13.93;;
20022;SDS011;10172;42.054;24.546;2023-11-21T08:12:23;23.77;;;14.80;;
20022;SDS011;10172;42.054;24.546;2023-11-21T08:14:49;28.80;;;16.00;;
20022;SDS011;10172;42.054;24.546;2023-11-21T08:17:14;23.60;;;15.45;;
20022;SDS011;10172;42.054;24.546;2023-11-21T08:19:39;25.15;;;14.93;;
20022;SDS011;10172;42.054;24.546;2023-11-21T08:22:05;26.98;;;15.45;;
20022;SDS011;10172;42.054;24.546;2023-11-21T08:24:33;21.88;;;14.32;;
20022;SDS011;10172;42.054;24.546;2023-11-21T08:26:58;23.75;;;14.43;;
20022;SDS011;10172;42.054;24.546;2023-11-21T08:29:24;24.83;;;13.98;;
20022;SDS011;10172;42.054;24.546;2023-11-21T08:31:49;18.58;;;10.52;;
20022;SDS011;10172;42.054;24.546;2023-11-21T08:34:15;19.40;;;11.73;;
20022;SDS011;10172;42.054;24.546;2023-11-21T08:36:43;25.30;;;12.60;;
20022;SDS011;10172;42.054;24.546;2023-11-21T08:39:09;23.38;;;14.07;;
20022;SDS011;10172;42.054;24.546;2023-11-21T08:41:35;22.73;;;13.80;;
20022;SDS011;10172;42.054;24.546;2023-11-21T08:44:01;21.92;;;12.98;;
20022;SDS011;10172;42.054;24.546;2023-11-21T08:46:31;21.20;;;11.82;;
20022;SDS011;10172;42.054;24.546;2023-11-21T08:48:58;22.25;;;13.07;;
20022;SDS011;10172;42.054;24.546;2023-11-21T08:51:26;21.25;;;12.93;;
20022;SDS011;10172;42.054;24.546;2023-11-21T08:53:51;18.15;;;11.48;;
20022;SDS011;10172;42.054;24.546;2023-11-21T08:56:17;22.52;;;11.38;;
20022;SDS011;10172;42.054;24.546;2023-11-21T08:58:43;16.45;;;9.02;;
20022;SDS011;10172;42.054;24.546;2023-11-21T09:01:09;16.17;;;10.32;;
20022;SDS011;10172;42.054;24.546;2023-11-21T09:03:34;16.85;;;9.98;;
20022;SDS011;10172;42.054;24.546;2023-11-21T09:06:00;14.35;;;10.02;;
20022;SDS011;10172;42.054;24.546;2023-11-21T09:08:26;16.80;;;10.20;;
20022;SDS011;10172;42.054;24.546;2023-11-21T09:10:53;16.02;;;9.60;;
20022;SDS011;10172;42.054;24.546;2023-11-21T09:13:18;12.65;;;7.75;;
20022;SDS011;10172;42.054;24.546;2023-11-21T09:15:44;15.68;;;7.55;;
20022;SDS011;10172;42.054;24.546;2023-11-21T09:18:12;15.68;;;7.43;;
20022;SDS011;10172;42.054;24.546;2023-11-21T09:20:38;12.80;;;7.03;;
20022;SDS011;10172;42.054;24.546;2023-11-21T09:23:04;11.90;;;7.32;;
20022;SDS011;10172;42.054;24.546;2023-11-21T09:25:29;16.63;;;8.18;;
20022;SDS011;10172;42.054;24.546;2023-11-21T09:27:55;11.50;;;6.60;;
20022;SDS011;10172;42.054;24.546;2023-11-21T09:30:22;15.00;;;8.55;;
20022;SDS011;10172;42.054;24.546;2023-11-21T09:32:49;15.18;;;7.80;;
20022;SDS011;10172;42.054;24.546;2023-11-21T09:35:15;10.55;;;6.70;;
20022;SDS011;10172;42.054;24.546;2023-11-21T09:37:43;9.38;;;6.10;;
20022;SDS011;10172;42.054;24.546;2023-11-21T09:40:11;12.02;;;6.43;;
20022;SDS011;10172;42.054;24.546;2023-11-21T09:42:57;12.48;;;5.20;;
20022;SDS011;10172;42.054;24.546;2023-11-21T09:47:56;8.00;;;4.63;;
20022;SDS011;10172;42.054;24.546;2023-11-21T09:50:22;16.88;;;9.63;;
20022;SDS011;10172;42.054;24.546;2023-11-21T09:52:52;12.20;;;6.95;;
20022;SDS011;10172;42.054;24.546;2023-11-21T09:55:19;7.68;;;4.45;;
20022;SDS011;10172;42.054;24.546;2023-11-21T09:57:46;5.70;;;3.28;;
20022;SDS011;10172;42.054;24.546;2023-11-21T10:00:13;5.90;;;3.30;;
20022;SDS011;10172;42.054;24.546;2023-11-21T10:02:42;4.00;;;2.85;;
20022;SDS011;10172;42.054;24.546;2023-11-21T10:05:09;6.40;;;2.58;;
20022;SDS011;10172;42.054;24.546;2023-11-21T10:07:37;6.03;;;3.22;;
20022;SDS011;10172;42.054;24.546;2023-11-21T10:10:05;8.25;;;3.90;;
20022;SDS011;10172;42.054;24.546;2023-11-21T10:12:33;7.13;;;3.15;;
20022;SDS011;10172;42.054;24.546;2023-11-21T10:15:00;6.85;;;4.57;;
20022;SDS011;10172;42.054;24.546;2023-11-21T10:17:28;7.47;;;3.92;;
20022;SDS011;10172;42.054;24.546;2023-11-21T10:19:56;6.05;;;3.40;;
20022;SDS011;10172;42.054;24.546;2023-11-21T10:22:22;7.15;;;4.10;;
20022;SDS011;10172;42.054;24.546;2023-11-21T10:24:49;7.75;;;3.28;;
20022;SDS011;10172;42.054;24.546;2023-11-21T10:27:14;6.63;;;3.83;;
20022;SDS011;10172;42.054;24.546;2023-11-21T10:29:41;6.28;;;3.45;;
20022;SDS011;10172;42.054;24.546;2023-11-21T10:32:07;6.18;;;3.55;;
20022;SDS011;10172;42.054;24.546;2023-11-21T10:34:32;6.47;;;2.95;;
20022;SDS011;10172;42.054;24.546;2023-11-21T10:36:59;6.85;;;3.55;;
20022;SDS011;10172;42.054;24.546;2023-11-21T10:39:36;6.15;;;3.30;;
20022;SDS011;10172;42.054;24.546;2023-11-21T10:42:01;7.82;;;3.75;;
20022;SDS011;10172;42.054;24.546;2023-11-21T10:44:27;9.02;;;3.70;;
20022;SDS011;10172;42.054;24.546;2023-11-21T10:46:53;12.48;;;8.80;;
20022;SDS011;10172;42.054;24.546;2023-11-21T10:49:23;12.68;;;6.60;;
20022;SDS011;10172;42.054;24.546;2023-11-21T10:51:50;8.73;;;4.95;;
20022;SDS011;10172;42.054;24.546;2023-11-21T10:54:22;13.25;;;7.85;;
20022;SDS011;10172;42.054;24.546;2023-11-21T10:56:48;21.00;;;11.90;;
20022;SDS011;10172;42.054;24.546;2023-11-21T10:59:16;9.02;;;7.60;;
20022;SDS011;10172;42.054;24.546;2023-11-21T11:01:42;7.78;;;5.00;;
20022;SDS011;10172;42.054;24.546;2023-11-21T11:04:11;12.00;;;6.15;;
20022;SDS011;10172;42.054;24.546;2023-11-21T11:06:44;9.25;;;5.40;;
20022;SDS011;10172;42.054;24.546;2023-11-21T11:09:15;9.63;;;5.70;;
20022;SDS011;10172;42.054;24.546;2023-11-21T11:11:42;11.50;;;6.88;;
20022;SDS011;10172;42.054;24.546;2023-11-21T11:14:12;10.05;;;5.63;;
20022;SDS011;10172;42.054;24.546;2023-11-21T11:16:39;12.18;;;5.70;;
20022;SDS011;10172;42.054;24.546;2023-11-21T11:19:09;6.50;;;4.00;;
20022;SDS011;10172;42.054;24.546;2023-11-21T11:29:34;7.07;;;3.55;;
20022;SDS011;10172;42.054;24.546;2023-11-21T11:32:14;6.88;;;4.00;;
20022;SDS011;10172;42.054;24.546;2023-11-21T11:35:01;8.10;;;3.85;;
20022;SDS011;10172;42.054;24.546;2023-11-21T11:37:32;6.20;;;3.38;;
20022;SDS011;10172;42.054;24.546;2023-11-21T11:39:58;5.93;;;3.03;;
20022;SDS011;10172;42.054;24.546;2023-11-21T11:42:24;6.70;;;3.28;;
20022;SDS011;10172;42.054;24.546;2023-11-21T11:44:52;7.40;;;3.38;;
20022;SDS011;10172;42.054;24.546;2023-11-21T11:47:20;9.00;;;4.05;;
20022;SDS011;10172;42.054;24.546;2023-11-21T11:52:33;10.20;;;5.13;;
20022;SDS011;10172;42.054;24.546;2023-11-21T11:55:02;8.27;;;3.95;;
20022;SDS011;10172;42.054;24.546;2023-11-21T11:57:33;20.48;;;11.98;;
20022;SDS011;10172;42.054;24.546;2023-11-21T12:00:09;35.10;;;19.73;;
20022;SDS011;10172;42.054;24.546;2023-11-21T12:02:45;16.20;;;8.25;;
20022;SDS011;10172;42.054;24.546;2023-11-21T12:05:13;10.63;;;6.90;;
20022;SDS011;10172;42.054;24.546;2023-11-21T12:10:15;6.40;;;3.22;;
20022;SDS011;10172;42.054;24.546;2023-11-21T12:12:47;9.40;;;5.28;;
20022;SDS011;10172;42.054;24.546;2023-11-21T12:15:13;11.10;;;5.97;;
20022;SDS011;10172;42.054;24.546;2023-11-21T12:17:43;16.58;;;7.93;;
20022;SDS011;10172;42.054;24.546;2023-11-21T12:20:09;8.77;;;5.18;;
20022;SDS011;10172;42.054;24.546;2023-11-21T12:22:51;12.10;;;5.95;;
20022;SDS011;10172;42.054;24.546;2023-11-21T12:25:19;8.52;;;4.70;;
20022;SDS011;10172;42.054;24.546;2023-11-21T12:27:51;6.75;;;4.20;;
20022;SDS011;10172;42.054;24.546;2023-11-21T12:30:18;8.70;;;5.00;;
20022;SDS011;10172;42.054;24.546;2023-11-21T12:32:48;8.40;;;4.07;;
20022;SDS011;10172;42.054;24.546;2023-11-21T12:35:18;7.72;;;3.92;;
20022;SDS011;10172;42.054;24.546;2023-11-21T12:37:45;9.38;;;3.85;;
20022;SDS011;10172;42.054;24.546;2023-11-21T12:40:12;7.47;;;3.80;;
20022;SDS011;10172;42.054;24.546;2023-11-21T12:42:47;9.73;;;3.85;;
20022;SDS011;10172;42.054;24.546;2023-11-21T12:47:42;9.88;;;6.15;;
20022;SDS011;10172;42.054;24.546;2023-11-21T12:50:09;12.50;;;5.32;;
20022;SDS011;10172;42.054;24.546;2023-11-21T12:52:44;9.85;;;4.88;;
20022;SDS011;10172;42.054;24.546;2023-11-21T12:55:20;12.43;;;7.00;;
20022;SDS011;10172;42.054;24.546;2023-11-21T12:57:53;7.93;;;5.28;;
20022;SDS011;10172;42.054;24.546;2023-11-21T13:00:27;7.00;;;4.20;;
20022;SDS011;10172;42.054;24.546;2023-11-21T13:02:57;8.55;;;4.30;;
20022;SDS011;10172;42.054;24.546;2023-11-21T13:05:30;9.02;;;3.72;;
20022;SDS011;10172;42.054;24.546;2023-11-21T13:08:02;7.20;;;3.75;;
20022;SDS011;10172;42.054;24.546;2023-11-21T13:10:31;9.77;;;4.18;;
20022;SDS011;10172;42.054;24.546;2023-11-21T13:13:00;11.52;;;7.00;;
20022;SDS011;10172;42.054;24.546;2023-11-21T13:15:30;11.93;;;5.90;;
20022;SDS011;10172;42.054;24.546;2023-11-21T13:17:58;9.75;;;6.35;;
20022;SDS011;10172;42.054;24.546;2023-11-21T13:20:27;11.20;;;6.40;;
20022;SDS011;10172;42.054;24.546;2023-11-21T13:22:53;13.57;;;8.98;;
20022;SDS011;10172;42.054;24.546;2023-11-21T13:25:22;14.73;;;8.30;;
20022;SDS011;10172;42.054;24.546;2023-11-21T13:27:55;10.65;;;5.50;;
20022;SDS011;10172;42.054;24.546;2023-11-21T13:30:21;9.70;;;5.38;;
20022;SDS011;10172;42.054;24.546;2023-11-21T13:32:52;19.50;;;14.60;;
20022;SDS011;10172;42.054;24.546;2023-11-21T13:35:22;26.75;;;16.73;;
20022;SDS011;10172;42.054;24.546;2023-11-21T13:37:55;15.88;;;7.10;;
20022;SDS011;10172;42.054;24.546;2023-11-21T13:40:25;14.15;;;9.02;;
20022;SDS011;10172;42.054;24.546;2023-11-21T13:42:55;17.42;;;11.05;;
20022;SDS011;10172;42.054;24.546;2023-11-21T13:45:24;9.52;;;5.28;;
20022;SDS011;10172;42.054;24.546;2023-11-21T13:47:51;10.50;;;5.85;;
20022;SDS011;10172;42.054;24.546;2023-11-21T13:50:21;9.77;;;5.00;;
20022;SDS011;10172;42.054;24.546;2023-11-21T13:52:54;11.35;;;6.68;;
20022;SDS011;10172;42.054;24.546;2023-11-21T13:55:19;12.82;;;7.18;;
20022;SDS011;10172;42.054;24.546;2023-11-21T13:57:46;10.45;;;5.82;;
20022;SDS011;10172;42.054;24.546;2023-11-21T14:00:17;14.73;;;7.72;;
20022;SDS011;10172;42.054;24.546;2023-11-21T14:03:01;24.00;;;12.05;;
20022;SDS011;10172;42.054;24.546;2023-11-21T14:05:29;36.83;;;16.85;;
20022;SDS011;10172;42.054;24.546;2023-11-21T14:07:56;68.38;;;25.85;;
20022;SDS011;10172;42.054;24.546;2023-11-21T14:10:28;82.68;;;28.65;;
20022;SDS011;10172;42.054;24.546;2023-11-21T14:13:02;36.00;;;14.68;;
20022;SDS011;10172;42.054;24.546;2023-11-21T14:15:29;24.52;;;11.02;;
20022;SDS011;10172;42.054;24.546;2023-11-21T14:17:56;27.73;;;12.93;;
20022;SDS011;10172;42.054;24.546;2023-11-21T14:20:21;28.85;;;13.43;;
20022;SDS011;10172;42.054;24.546;2023-11-21T14:22:47;26.25;;;12.23;;
20022;SDS011;10172;42.054;24.546;2023-11-21T14:25:12;9.82;;;5.35;;
20022;SDS011;10172;42.054;24.546;2023-11-21T14:27:39;10.43;;;4.90;;
20022;SDS011;10172;42.054;24.546;2023-11-21T14:30:05;9.27;;;5.50;;
20022;SDS011;10172;42.054;24.546;2023-11-21T14:32:31;8.50;;;4.15;;
20022;SDS011;10172;42.054;24.546;2023-11-21T14:34:57;16.05;;;9.20;;
20022;SDS011;10172;42.054;24.546;2023-11-21T14:37:22;15.82;;;7.50;;
20022;SDS011;10172;42.054;24.546;2023-11-21T14:39:48;13.93;;;6.93;;
20022;SDS011;10172;42.054;24.546;2023-11-21T14:42:14;15.60;;;8.82;;
20022;SDS011;10172;42.054;24.546;2023-11-21T14:44:40;6.93;;;4.40;;
20022;SDS011;10172;42.054;24.546;2023-11-21T14:47:07;7.95;;;4.97;;